Sremska Mitrovica, Serbia
Current Conditions -  °F | °C
As of 3:00 PM on Saturday 25 Oct 2014 (Local Time) from LYBT Reporting Station
Broken Clouds Broken Clouds  
Wind Chill: 48°   Ceiling: 2500
Heat Index: 48°   Visibility: 6mi
Dew Point: 39°   Wind: 2mph
Humidity: 71%   Direction: NA
Pressure: 30.27"   Gusts: NA
Location:  44.98°N, 19.61°E
Report Text: LYBT 251300Z VRB02KT 9999 BKN025 09/04 Q1025 NOSIG
Loading
Personal Weather Stations






























Interactive Weather Map
Tropical Storm Tracking
New forecast layout! Learn more

10-Day Weather Forecast

Advertisements
Track Severe Weather on mobile